sensor_id;sensor_type;location;lat;lon;timestamp;pressure;altitude;pressure_sealevel;temperature;humidity
47706;BME280;33471;52.104;1.318;2022-12-07T00:00:52;101887.32;;;2.51;62.96
47706;BME280;33471;52.104;1.318;2022-12-07T00:03:20;101884.77;;;2.80;62.62
47706;BME280;33471;52.104;1.318;2022-12-07T00:05:48;101885.60;;;2.74;63.56
47706;BME280;33471;52.104;1.318;2022-12-07T00:08:16;101885.81;;;2.34;64.01
47706;BME280;33471;52.104;1.318;2022-12-07T00:10:43;101886.15;;;2.07;63.97
47706;BME280;33471;52.104;1.318;2022-12-07T00:13:10;101879.54;;;3.46;60.31
47706;BME280;33471;52.104;1.318;2022-12-07T00:15:38;101881.26;;;2.97;60.33
47706;BME280;33471;52.104;1.318;2022-12-07T00:18:05;101881.12;;;3.23;60.47
47706;BME280;33471;52.104;1.318;2022-12-07T00:20:33;101879.97;;;2.25;61.83
47706;BME280;33471;52.104;1.318;2022-12-07T00:23:00;101880.03;;;2.97;62.70
47706;BME280;33471;52.104;1.318;2022-12-07T00:25:28;101870.24;;;2.34;59.98
47706;BME280;33471;52.104;1.318;2022-12-07T00:27:56;101873.40;;;2.82;60.67
47706;BME280;33471;52.104;1.318;2022-12-07T00:30:24;101875.47;;;1.42;63.26
47706;BME280;33471;52.104;1.318;2022-12-07T00:32:51;101877.50;;;3.42;60.98
47706;BME280;33471;52.104;1.318;2022-12-07T00:35:19;101885.80;;;1.54;65.14
47706;BME280;33471;52.104;1.318;2022-12-07T00:37:47;101878.96;;;2.09;65.40
47706;BME280;33471;52.104;1.318;2022-12-07T00:40:15;101882.06;;;2.92;63.36
47706;BME280;33471;52.104;1.318;2022-12-07T00:42:42;101876.85;;;1.03;67.88
47706;BME280;33471;52.104;1.318;2022-12-07T00:45:10;101877.40;;;2.16;65.01
47706;BME280;33471;52.104;1.318;2022-12-07T00:47:37;101881.97;;;1.59;67.25
47706;BME280;33471;52.104;1.318;2022-12-07T00:50:05;101884.54;;;2.52;65.17
47706;BME280;33471;52.104;1.318;2022-12-07T00:52:33;101883.50;;;2.40;65.08
47706;BME280;33471;52.104;1.318;2022-12-07T00:55:00;101879.64;;;1.83;69.24
47706;BME280;33471;52.104;1.318;2022-12-07T00:57:27;101876.33;;;1.03;69.05
47706;BME280;33471;52.104;1.318;2022-12-07T00:59:54;101882.24;;;0.90;73.09
47706;BME280;33471;52.104;1.318;2022-12-07T01:02:22;101870.43;;;0.58;71.36
47706;BME280;33471;52.104;1.318;2022-12-07T01:04:49;101870.91;;;1.69;69.11
47706;BME280;33471;52.104;1.318;2022-12-07T01:07:17;101873.39;;;2.21;67.20
47706;BME280;33471;52.104;1.318;2022-12-07T01:09:44;101867.45;;;2.19;66.98
47706;BME280;33471;52.104;1.318;2022-12-07T01:12:12;101875.89;;;1.71;68.49
47706;BME280;33471;52.104;1.318;2022-12-07T01:14:39;101874.42;;;2.38;66.72
47706;BME280;33471;52.104;1.318;2022-12-07T01:17:08;101867.30;;;1.91;68.11
47706;BME280;33471;52.104;1.318;2022-12-07T01:19:35;101864.59;;;2.99;64.88
47706;BME280;33471;52.104;1.318;2022-12-07T01:22:02;101861.35;;;3.04;63.57
47706;BME280;33471;52.104;1.318;2022-12-07T01:24:30;101860.36;;;2.78;63.18
47706;BME280;33471;52.104;1.318;2022-12-07T01:26:57;101863.88;;;2.58;64.41
47706;BME280;33471;52.104;1.318;2022-12-07T01:29:24;101865.33;;;1.81;66.22
47706;BME280;33471;52.104;1.318;2022-12-07T01:31:52;101865.92;;;2.36;66.36
47706;BME280;33471;52.104;1.318;2022-12-07T01:34:20;101869.16;;;2.12;66.61
47706;BME280;33471;52.104;1.318;2022-12-07T01:36:47;101860.44;;;2.65;65.86
47706;BME280;33471;52.104;1.318;2022-12-07T01:39:14;101858.49;;;2.48;66.37
47706;BME280;33471;52.104;1.318;2022-12-07T01:41:42;101859.38;;;2.37;65.63
47706;BME280;33471;52.104;1.318;2022-12-07T01:44:13;101853.22;;;4.11;61.75
47706;BME280;33471;52.104;1.318;2022-12-07T01:46:42;101847.05;;;3.44;61.74
47706;BME280;33471;52.104;1.318;2022-12-07T01:49:13;101856.25;;;1.51;68.42
47706;BME280;33471;52.104;1.318;2022-12-07T01:51:43;101852.55;;;2.55;66.27
47706;BME280;33471;52.104;1.318;2022-12-07T01:54:13;101854.58;;;2.39;66.47
47706;BME280;33471;52.104;1.318;2022-12-07T01:56:44;101854.08;;;2.29;66.86
47706;BME280;33471;52.104;1.318;2022-12-07T01:59:15;101848.04;;;2.68;64.82
47706;BME280;33471;52.104;1.318;2022-12-07T02:01:44;101853.96;;;1.39;68.05
47706;BME280;33471;52.104;1.318;2022-12-07T02:04:12;101850.08;;;2.92;64.65
47706;BME280;33471;52.104;1.318;2022-12-07T02:06:40;101853.42;;;2.98;63.07
47706;BME280;33471;52.104;1.318;2022-12-07T02:09:08;101851.79;;;3.43;61.89
47706;BME280;33471;52.104;1.318;2022-12-07T02:11:35;101860.15;;;1.99;65.97
47706;BME280;33471;52.104;1.318;2022-12-07T02:14:03;101859.29;;;2.26;65.17
47706;BME280;33471;52.104;1.318;2022-12-07T02:16:37;101855.71;;;2.96;63.08
47706;BME280;33471;52.104;1.318;2022-12-07T02:19:34;101854.06;;;2.43;65.46
47706;BME280;33471;52.104;1.318;2022-12-07T02:22:22;101857.04;;;1.68;67.58
47706;BME280;33471;52.104;1.318;2022-12-07T02:25:03;101849.73;;;3.08;63.88
47706;BME280;33471;52.104;1.318;2022-12-07T02:27:39;101850.63;;;2.35;64.04
47706;BME280;33471;52.104;1.318;2022-12-07T02:30:12;101852.92;;;3.04;63.43
47706;BME280;33471;52.104;1.318;2022-12-07T02:32:46;101850.75;;;3.40;60.14
47706;BME280;33471;52.104;1.318;2022-12-07T02:35:20;101851.79;;;3.63;60.47
47706;BME280;33471;52.104;1.318;2022-12-07T02:37:57;101858.20;;;2.51;63.32
47706;BME280;33471;52.104;1.318;2022-12-07T02:40:30;101852.92;;;3.16;61.00
47706;BME280;33471;52.104;1.318;2022-12-07T02:43:04;101849.49;;;3.33;61.85
47706;BME280;33471;52.104;1.318;2022-12-07T02:45:35;101850.80;;;2.10;62.92
47706;BME280;33471;52.104;1.318;2022-12-07T02:48:04;101842.76;;;2.92;62.87
47706;BME280;33471;52.104;1.318;2022-12-07T02:50:34;101836.06;;;2.39;63.72
47706;BME280;33471;52.104;1.318;2022-12-07T02:53:01;101838.44;;;2.83;62.68
47706;BME280;33471;52.104;1.318;2022-12-07T02:55:34;101840.24;;;3.35;59.90
47706;BME280;33471;52.104;1.318;2022-12-07T02:58:16;101836.91;;;4.07;59.20
47706;BME280;33471;52.104;1.318;2022-12-07T03:00:54;101840.07;;;2.64;62.54
47706;BME280;33471;52.104;1.318;2022-12-07T03:03:28;101839.81;;;2.05;65.19
47706;BME280;33471;52.104;1.318;2022-12-07T03:06:11;101827.85;;;3.07;62.94
47706;BME280;33471;52.104;1.318;2022-12-07T03:08:51;101830.32;;;2.05;65.83
47706;BME280;33471;52.104;1.318;2022-12-07T03:11:25;101828.53;;;1.82;63.91
47706;BME280;33471;52.104;1.318;2022-12-07T03:14:00;101834.26;;;3.29;62.86
47706;BME280;33471;52.104;1.318;2022-12-07T03:16:33;101836.79;;;2.70;63.59
47706;BME280;33471;52.104;1.318;2022-12-07T03:19:05;101833.88;;;2.13;65.50
47706;BME280;33471;52.104;1.318;2022-12-07T03:21:37;101836.68;;;2.01;66.52
47706;BME280;33471;52.104;1.318;2022-12-07T03:24:08;101829.91;;;1.56;69.08
47706;BME280;33471;52.104;1.318;2022-12-07T03:26:40;101830.29;;;1.37;68.72
47706;BME280;33471;52.104;1.318;2022-12-07T03:29:13;101826.84;;;2.08;68.14
47706;BME280;33471;52.104;1.318;2022-12-07T03:31:48;101818.76;;;2.87;65.07
47706;BME280;33471;52.104;1.318;2022-12-07T03:34:22;101822.29;;;2.16;68.53
47706;BME280;33471;52.104;1.318;2022-12-07T03:36:57;101821.71;;;2.12;67.13
47706;BME280;33471;52.104;1.318;2022-12-07T03:39:30;101817.71;;;1.77;65.09
47706;BME280;33471;52.104;1.318;2022-12-07T03:42:03;101818.60;;;2.51;65.54
47706;BME280;33471;52.104;1.318;2022-12-07T03:44:33;101818.54;;;2.84;62.61
47706;BME280;33471;52.104;1.318;2022-12-07T03:47:04;101824.99;;;2.43;65.29
47706;BME280;33471;52.104;1.318;2022-12-07T03:49:39;101824.71;;;2.05;65.71
47706;BME280;33471;52.104;1.318;2022-12-07T03:52:13;101826.20;;;2.77;65.01
47706;BME280;33471;52.104;1.318;2022-12-07T03:54:49;101834.17;;;2.17;66.37
47706;BME280;33471;52.104;1.318;2022-12-07T03:57:21;101828.38;;;1.98;66.07
47706;BME280;33471;52.104;1.318;2022-12-07T03:59:51;101830.08;;;2.34;65.77
47706;BME280;33471;52.104;1.318;2022-12-07T04:02:19;101827.48;;;1.98;66.80
47706;BME280;33471;52.104;1.318;2022-12-07T04:04:46;101823.79;;;2.30;67.39
47706;BME280;33471;52.104;1.318;2022-12-07T04:07:13;101819.69;;;2.19;66.70
47706;BME280;33471;52.104;1.318;2022-12-07T04:09:41;101813.21;;;2.05;66.03
47706;BME280;33471;52.104;1.318;2022-12-07T04:12:08;101814.04;;;1.92;65.28
47706;BME280;33471;52.104;1.318;2022-12-07T04:14:36;101817.45;;;2.28;64.32
47706;BME280;33471;52.104;1.318;2022-12-07T04:17:03;101812.58;;;2.35;65.20
47706;BME280;33471;52.104;1.318;2022-12-07T04:19:32;101809.64;;;1.58;65.89
47706;BME280;33471;52.104;1.318;2022-12-07T04:22:01;101813.36;;;1.92;65.55
47706;BME280;33471;52.104;1.318;2022-12-07T04:24:29;101816.43;;;2.45;62.75
47706;BME280;33471;52.104;1.318;2022-12-07T04:26:57;101821.67;;;2.49;63.20
47706;BME280;33471;52.104;1.318;2022-12-07T04:29:24;101822.29;;;2.03;63.10
47706;BME280;33471;52.104;1.318;2022-12-07T04:31:52;101826.76;;;2.53;64.26
47706;BME280;33471;52.104;1.318;2022-12-07T04:34:20;101819.38;;;2.17;64.77
47706;BME280;33471;52.104;1.318;2022-12-07T04:36:48;101821.14;;;2.31;65.46
47706;BME280;33471;52.104;1.318;2022-12-07T04:39:20;101822.94;;;2.40;66.05
47706;BME280;33471;52.104;1.318;2022-12-07T04:41:47;101818.00;;;2.00;66.40
47706;BME280;33471;52.104;1.318;2022-12-07T04:44:16;101814.76;;;1.90;67.10
47706;BME280;33471;52.104;1.318;2022-12-07T04:46:44;101810.74;;;1.86;67.04
47706;BME280;33471;52.104;1.318;2022-12-07T04:49:13;101808.60;;;2.01;66.11
47706;BME280;33471;52.104;1.318;2022-12-07T04:51:41;101809.66;;;1.63;67.80
47706;BME280;33471;52.104;1.318;2022-12-07T04:54:09;101806.29;;;2.19;66.77
47706;BME280;33471;52.104;1.318;2022-12-07T04:56:37;101796.52;;;2.29;65.60
47706;BME280;33471;52.104;1.318;2022-12-07T04:59:05;101797.91;;;2.01;66.25
47706;BME280;33471;52.104;1.318;2022-12-07T05:01:33;101794.37;;;1.63;65.45
47706;BME280;33471;52.104;1.318;2022-12-07T05:04:01;101791.88;;;2.66;63.76
47706;BME280;33471;52.104;1.318;2022-12-07T05:06:28;101790.69;;;1.37;66.27
47706;BME280;33471;52.104;1.318;2022-12-07T05:08:56;101787.74;;;2.15;65.15
47706;BME280;33471;52.104;1.318;2022-12-07T05:11:23;101784.60;;;1.05;67.23
47706;BME280;33471;52.104;1.318;2022-12-07T05:13:50;101782.49;;;2.37;65.52
47706;BME280;33471;52.104;1.318;2022-12-07T05:16:18;101790.15;;;1.43;67.17
47706;BME280;33471;52.104;1.318;2022-12-07T05:18:46;101781.40;;;2.41;65.08
47706;BME280;33471;52.104;1.318;2022-12-07T05:21:13;101783.83;;;2.92;63.92
47706;BME280;33471;52.104;1.318;2022-12-07T05:23:40;101789.55;;;2.49;64.54
47706;BME280;33471;52.104;1.318;2022-12-07T05:26:08;101786.89;;;0.92;68.03
47706;BME280;33471;52.104;1.318;2022-12-07T05:28:35;101792.25;;;1.61;66.39
47706;BME280;33471;52.104;1.318;2022-12-07T05:31:02;101786.22;;;2.61;65.95
47706;BME280;33471;52.104;1.318;2022-12-07T05:33:29;101785.81;;;2.16;67.19
47706;BME280;33471;52.104;1.318;2022-12-07T05:35:57;101789.49;;;1.78;67.75
47706;BME280;33471;52.104;1.318;2022-12-07T05:38:24;101783.05;;;2.23;65.45
47706;BME280;33471;52.104;1.318;2022-12-07T05:40:51;101787.51;;;0.87;69.89
47706;BME280;33471;52.104;1.318;2022-12-07T05:43:19;101788.61;;;1.41;68.77
47706;BME280;33471;52.104;1.318;2022-12-07T05:45:47;101789.22;;;0.95;69.66
47706;BME280;33471;52.104;1.318;2022-12-07T05:48:14;101784.34;;;1.99;66.57
47706;BME280;33471;52.104;1.318;2022-12-07T05:50:41;101782.80;;;2.18;65.58
47706;BME280;33471;52.104;1.318;2022-12-07T05:53:08;101785.49;;;2.17;64.97
47706;BME280;33471;52.104;1.318;2022-12-07T05:55:35;101784.41;;;2.09;64.40
47706;BME280;33471;52.104;1.318;2022-12-07T05:58:03;101782.37;;;3.37;61.77
47706;BME280;33471;52.104;1.318;2022-12-07T06:00:31;101780.25;;;3.09;61.39
47706;BME280;33471;52.104;1.318;2022-12-07T06:02:58;101779.79;;;3.10;62.64
47706;BME280;33471;52.104;1.318;2022-12-07T06:05:26;101785.92;;;1.87;63.98
47706;BME280;33471;52.104;1.318;2022-12-07T06:07:53;101782.84;;;2.99;62.87
47706;BME280;33471;52.104;1.318;2022-12-07T06:10:21;101785.89;;;2.43;62.98
47706;BME280;33471;52.104;1.318;2022-12-07T06:12:49;101789.38;;;2.19;65.23
47706;BME280;33471;52.104;1.318;2022-12-07T06:15:17;101790.06;;;3.33;62.55
47706;BME280;33471;52.104;1.318;2022-12-07T06:17:44;101792.55;;;2.48;63.69
47706;BME280;33471;52.104;1.318;2022-12-07T06:20:11;101796.94;;;2.58;63.92
47706;BME280;33471;52.104;1.318;2022-12-07T06:22:40;101796.65;;;1.82;64.94
47706;BME280;33471;52.104;1.318;2022-12-07T06:25:08;101797.37;;;1.51;65.87
47706;BME280;33471;52.104;1.318;2022-12-07T06:27:35;101792.90;;;1.82;64.58
47706;BME280;33471;52.104;1.318;2022-12-07T06:30:04;101792.08;;;1.70;67.49
47706;BME280;33471;52.104;1.318;2022-12-07T06:32:33;101781.05;;;2.76;62.56
47706;BME280;33471;52.104;1.318;2022-12-07T06:35:00;101790.44;;;2.21;65.73
47706;BME280;33471;52.104;1.318;2022-12-07T06:37:28;101780.17;;;2.20;63.12
47706;BME280;33471;52.104;1.318;2022-12-07T06:39:55;101786.75;;;1.88;65.15
47706;BME280;33471;52.104;1.318;2022-12-07T06:42:23;101785.29;;;1.61;64.09
47706;BME280;33471;52.104;1.318;2022-12-07T06:44:50;101792.39;;;2.78;64.01
47706;BME280;33471;52.104;1.318;2022-12-07T06:47:18;101790.21;;;2.94;61.98
47706;BME280;33471;52.104;1.318;2022-12-07T06:49:45;101790.95;;;3.23;60.76
47706;BME280;33471;52.104;1.318;2022-12-07T06:52:12;101790.28;;;3.08;62.52
47706;BME280;33471;52.104;1.318;2022-12-07T06:54:40;101785.93;;;2.67;62.17
47706;BME280;33471;52.104;1.318;2022-12-07T06:57:07;101784.63;;;2.82;63.08
47706;BME280;33471;52.104;1.318;2022-12-07T06:59:34;101785.76;;;3.31;61.14
47706;BME280;33471;52.104;1.318;2022-12-07T07:02:01;101788.81;;;2.18;64.72
47706;BME280;33471;52.104;1.318;2022-12-07T07:04:29;101781.92;;;1.33;63.42
47706;BME280;33471;52.104;1.318;2022-12-07T07:06:56;101782.05;;;3.04;62.46
47706;BME280;33471;52.104;1.318;2022-12-07T07:09:24;101779.14;;;2.18;62.29
47706;BME280;33471;52.104;1.318;2022-12-07T07:11:51;101779.81;;;3.39;61.25
47706;BME280;33471;52.104;1.318;2022-12-07T07:14:19;101786.69;;;2.51;62.97
47706;BME280;33471;52.104;1.318;2022-12-07T07:16:47;101789.16;;;1.82;65.44
47706;BME280;33471;52.104;1.318;2022-12-07T07:19:14;101784.08;;;2.82;63.29
47706;BME280;33471;52.104;1.318;2022-12-07T07:21:41;101789.51;;;2.27;65.22
47706;BME280;33471;52.104;1.318;2022-12-07T07:24:08;101788.22;;;2.15;65.47
47706;BME280;33471;52.104;1.318;2022-12-07T07:26:35;101786.18;;;2.11;64.34
47706;BME280;33471;52.104;1.318;2022-12-07T07:29:02;101782.25;;;2.78;62.93
47706;BME280;33471;52.104;1.318;2022-12-07T07:31:30;101788.90;;;1.73;64.64
47706;BME280;33471;52.104;1.318;2022-12-07T07:33:58;101778.91;;;3.94;60.24
47706;BME280;33471;52.104;1.318;2022-12-07T07:36:26;101777.68;;;2.86;61.21
47706;BME280;33471;52.104;1.318;2022-12-07T07:38:53;101782.28;;;3.86;59.01
47706;BME280;33471;52.104;1.318;2022-12-07T07:41:21;101784.66;;;3.29;59.80
47706;BME280;33471;52.104;1.318;2022-12-07T07:43:49;101788.63;;;4.13;58.42
47706;BME280;33471;52.104;1.318;2022-12-07T07:46:16;101789.35;;;2.88;61.78
47706;BME280;33471;52.104;1.318;2022-12-07T07:48:43;101793.86;;;3.02;61.58
47706;BME280;33471;52.104;1.318;2022-12-07T07:51:11;101799.16;;;2.25;64.18
47706;BME280;33471;52.104;1.318;2022-12-07T07:53:38;101800.06;;;2.68;63.22
47706;BME280;33471;52.104;1.318;2022-12-07T07:56:05;101803.59;;;2.21;64.05
47706;BME280;33471;52.104;1.318;2022-12-07T07:58:33;101807.91;;;1.96;63.69
47706;BME280;33471;52.104;1.318;2022-12-07T08:01:04;101804.42;;;2.30;64.00
47706;BME280;33471;52.104;1.318;2022-12-07T08:03:31;101809.73;;;0.97;66.44
47706;BME280;33471;52.104;1.318;2022-12-07T08:05:58;101812.14;;;1.21;68.39
47706;BME280;33471;52.104;1.318;2022-12-07T08:08:26;101812.15;;;1.17;67.15
47706;BME280;33471;52.104;1.318;2022-12-07T08:10:53;101803.31;;;2.48;64.15
47706;BME280;33471;52.104;1.318;2022-12-07T08:13:21;101799.69;;;2.85;62.60
47706;BME280;33471;52.104;1.318;2022-12-07T08:15:48;101799.66;;;3.46;60.51
47706;BME280;33471;52.104;1.318;2022-12-07T08:18:16;101802.87;;;2.60;63.07
47706;BME280;33471;52.104;1.318;2022-12-07T08:20:43;101803.36;;;3.00;62.68
47706;BME280;33471;52.104;1.318;2022-12-07T08:23:11;101803.08;;;3.45;61.53
47706;BME280;33471;52.104;1.318;2022-12-07T08:25:39;101807.82;;;3.18;60.00
47706;BME280;33471;52.104;1.318;2022-12-07T08:28:06;101806.30;;;3.97;59.20
47706;BME280;33471;52.104;1.318;2022-12-07T08:30:34;101801.03;;;2.64;62.20
47706;BME280;33471;52.104;1.318;2022-12-07T08:33:01;101800.67;;;3.20;60.57
47706;BME280;33471;52.104;1.318;2022-12-07T08:35:29;101800.32;;;2.76;59.69
47706;BME280;33471;52.104;1.318;2022-12-07T08:37:56;101800.53;;;3.92;59.77
47706;BME280;33471;52.104;1.318;2022-12-07T08:40:24;101801.12;;;3.30;59.32
47706;BME280;33471;52.104;1.318;2022-12-07T08:42:52;101800.79;;;2.70;61.63
47706;BME280;33471;52.104;1.318;2022-12-07T08:45:21;101806.99;;;2.77;61.51
47706;BME280;33471;52.104;1.318;2022-12-07T08:47:50;101806.60;;;1.48;65.59
47706;BME280;33471;52.104;1.318;2022-12-07T08:50:19;101801.64;;;2.37;64.25
47706;BME280;33471;52.104;1.318;2022-12-07T08:52:48;101800.67;;;3.46;60.75
47706;BME280;33471;52.104;1.318;2022-12-07T08:55:18;101799.26;;;2.13;64.16
47706;BME280;33471;52.104;1.318;2022-12-07T08:57:45;101792.84;;;3.09;60.67
47706;BME280;33471;52.104;1.318;2022-12-07T09:00:14;101790.43;;;3.60;60.00
47706;BME280;33471;52.104;1.318;2022-12-07T09:02:41;101788.67;;;2.82;61.41
47706;BME280;33471;52.104;1.318;2022-12-07T09:05:10;101786.19;;;2.72;62.63
47706;BME280;33471;52.104;1.318;2022-12-07T09:07:38;101783.32;;;2.93;61.47
47706;BME280;33471;52.104;1.318;2022-12-07T09:10:06;101778.80;;;2.78;61.66
47706;BME280;33471;52.104;1.318;2022-12-07T09:12:33;101780.62;;;2.77;61.12
47706;BME280;33471;52.104;1.318;2022-12-07T09:15:00;101781.00;;;3.34;60.55
47706;BME280;33471;52.104;1.318;2022-12-07T09:17:32;101786.26;;;2.59;59.79
47706;BME280;33471;52.104;1.318;2022-12-07T09:20:00;101791.74;;;2.57;61.91
47706;BME280;33471;52.104;1.318;2022-12-07T09:22:29;101793.57;;;1.59;63.29
47706;BME280;33471;52.104;1.318;2022-12-07T09:24:56;101788.69;;;2.79;62.95
47706;BME280;33471;52.104;1.318;2022-12-07T09:27:24;101793.61;;;2.14;61.41
47706;BME280;33471;52.104;1.318;2022-12-07T09:29:50;101794.29;;;1.91;64.18
47706;BME280;33471;52.104;1.318;2022-12-07T09:32:18;101790.38;;;3.25;61.77
47706;BME280;33471;52.104;1.318;2022-12-07T09:34:45;101793.94;;;1.99;64.29
47706;BME280;33471;52.104;1.318;2022-12-07T09:37:12;101789.44;;;2.88;61.10
47706;BME280;33471;52.104;1.318;2022-12-07T09:39:40;101793.69;;;3.66;58.78
47706;BME280;33471;52.104;1.318;2022-12-07T09:42:08;101798.30;;;3.29;59.99
47706;BME280;33471;52.104;1.318;2022-12-07T09:44:40;101796.99;;;3.00;60.56
47706;BME280;33471;52.104;1.318;2022-12-07T09:47:09;101800.57;;;1.55;64.74
47706;BME280;33471;52.104;1.318;2022-12-07T09:49:37;101802.70;;;1.77;64.55
47706;BME280;33471;52.104;1.318;2022-12-07T09:52:18;101797.44;;;2.78;62.01
47706;BME280;33471;52.104;1.318;2022-12-07T09:54:48;101794.58;;;3.29;60.49
47706;BME280;33471;52.104;1.318;2022-12-07T09:57:17;101800.19;;;4.30;56.75
47706;BME280;33471;52.104;1.318;2022-12-07T09:59:44;101798.51;;;3.26;58.99
47706;BME280;33471;52.104;1.318;2022-12-07T10:02:34;101794.49;;;2.69;61.10
47706;BME280;33471;52.104;1.318;2022-12-07T10:05:01;101794.47;;;4.17;58.11
47706;BME280;33471;52.104;1.318;2022-12-07T10:07:30;101795.90;;;1.65;61.57
47706;BME280;33471;52.104;1.318;2022-12-07T10:09:57;101795.73;;;2.88;61.68
47706;BME280;33471;52.104;1.318;2022-12-07T10:12:25;101798.59;;;1.24;64.31
47706;BME280;33471;52.104;1.318;2022-12-07T10:14:55;101790.30;;;3.01;60.85
47706;BME280;33471;52.104;1.318;2022-12-07T10:17:31;101789.48;;;3.57;57.43
47706;BME280;33471;52.104;1.318;2022-12-07T10:20:19;101785.50;;;3.98;57.81
47706;BME280;33471;52.104;1.318;2022-12-07T10:22:57;101778.62;;;2.30;61.66
47706;BME280;33471;52.104;1.318;2022-12-07T10:25:27;101774.18;;;3.02;58.39
47706;BME280;33471;52.104;1.318;2022-12-07T10:28:00;101774.45;;;4.13;57.54
47706;BME280;33471;52.104;1.318;2022-12-07T10:30:29;101772.12;;;2.61;58.74
47706;BME280;33471;52.104;1.318;2022-12-07T10:32:56;101770.70;;;3.99;57.75
47706;BME280;33471;52.104;1.318;2022-12-07T10:35:26;101761.24;;;2.89;59.42
47706;BME280;33471;52.104;1.318;2022-12-07T10:37:56;101758.69;;;2.44;62.30
47706;BME280;33471;52.104;1.318;2022-12-07T10:40:29;101755.71;;;1.93;61.73
47706;BME280;33471;52.104;1.318;2022-12-07T10:43:03;101752.98;;;3.54;58.56
47706;BME280;33471;52.104;1.318;2022-12-07T10:45:32;101751.64;;;3.85;57.63
47706;BME280;33471;52.104;1.318;2022-12-07T10:48:06;101755.02;;;3.86;56.93
47706;BME280;33471;52.104;1.318;2022-12-07T10:50:48;101750.17;;;2.59;59.10
47706;BME280;33471;52.104;1.318;2022-12-07T10:53:27;101746.66;;;4.69;54.92
47706;BME280;33471;52.104;1.318;2022-12-07T10:56:21;101743.49;;;3.43;57.98
47706;BME280;33471;52.104;1.318;2022-12-07T10:58:59;101743.79;;;3.73;57.67
47706;BME280;33471;52.104;1.318;2022-12-07T11:01:33;101735.39;;;3.85;56.34
47706;BME280;33471;52.104;1.318;2022-12-07T11:04:18;101725.99;;;4.74;55.13
47706;BME280;33471;52.104;1.318;2022-12-07T11:06:55;101734.96;;;4.15;56.96
47706;BME280;33471;52.104;1.318;2022-12-07T11:09:40;101735.72;;;1.83;61.90
47706;BME280;33471;52.104;1.318;2022-12-07T11:12:19;101739.15;;;3.05;61.53
47706;BME280;33471;52.104;1.318;2022-12-07T11:14:55;101728.93;;;2.67;60.99
47706;BME280;33471;52.104;1.318;2022-12-07T11:17:31;101730.86;;;3.06;58.94
47706;BME280;33471;52.104;1.318;2022-12-07T11:20:11;101730.06;;;3.95;58.07
47706;BME280;33471;52.104;1.318;2022-12-07T11:22:44;101724.09;;;3.43;58.30
47706;BME280;33471;52.104;1.318;2022-12-07T11:25:24;101717.42;;;2.86;60.77
47706;BME280;33471;52.104;1.318;2022-12-07T11:28:10;101710.28;;;3.89;58.71
47706;BME280;33471;52.104;1.318;2022-12-07T11:30:51;101709.16;;;3.45;59.55
47706;BME280;33471;52.104;1.318;2022-12-07T11:33:29;101706.26;;;1.96;61.62
47706;BME280;33471;52.104;1.318;2022-12-07T11:36:09;101704.25;;;2.31;62.64
47706;BME280;33471;52.104;1.318;2022-12-07T11:38:43;101695.32;;;3.10;59.50
47706;BME280;33471;52.104;1.318;2022-12-07T11:41:13;101692.09;;;2.18;63.40
47706;BME280;33471;52.104;1.318;2022-12-07T11:43:54;101690.19;;;2.57;61.72
47706;BME280;33471;52.104;1.318;2022-12-07T11:46:25;101684.07;;;1.78;63.25
47706;BME280;33471;52.104;1.318;2022-12-07T11:48:58;101685.43;;;3.18;59.38
47706;BME280;33471;52.104;1.318;2022-12-07T11:51:30;101678.86;;;2.32;63.76
47706;BME280;33471;52.104;1.318;2022-12-07T11:54:03;101683.48;;;3.21;61.01
47706;BME280;33471;52.104;1.318;2022-12-07T11:56:35;101679.69;;;2.73;59.89
47706;BME280;33471;52.104;1.318;2022-12-07T11:59:08;101675.38;;;2.49;60.50
47706;BME280;33471;52.104;1.318;2022-12-07T12:01:48;101677.95;;;3.32;57.25
47706;BME280;33471;52.104;1.318;2022-12-07T12:04:27;101671.20;;;3.79;57.50
47706;BME280;33471;52.104;1.318;2022-12-07T12:06:56;101676.01;;;2.88;59.65
47706;BME280;33471;52.104;1.318;2022-12-07T12:09:28;101671.14;;;2.29;59.64
47706;BME280;33471;52.104;1.318;2022-12-07T12:12:23;101666.18;;;2.83;59.81
47706;BME280;33471;52.104;1.318;2022-12-07T12:15:08;101658.58;;;2.59;60.90
47706;BME280;33471;52.104;1.318;2022-12-07T12:17:54;101654.34;;;3.53;57.97
47706;BME280;33471;52.104;1.318;2022-12-07T12:20:29;101646.82;;;2.06;60.23
47706;BME280;33471;52.104;1.318;2022-12-07T12:23:01;101643.73;;;3.38;58.85
47706;BME280;33471;52.104;1.318;2022-12-07T12:25:39;101642.28;;;2.52;60.54
47706;BME280;33471;52.104;1.318;2022-12-07T12:28:20;101641.28;;;3.42;59.23
47706;BME280;33471;52.104;1.318;2022-12-07T12:31:06;101636.97;;;2.79;60.76
47706;BME280;33471;52.104;1.318;2022-12-07T12:33:35;101624.51;;;3.56;56.84
47706;BME280;33471;52.104;1.318;2022-12-07T12:36:20;101626.51;;;3.41;57.46
47706;BME280;33471;52.104;1.318;2022-12-07T12:38:51;101626.37;;;2.90;59.36
47706;BME280;33471;52.104;1.318;2022-12-07T12:42:18;101622.52;;;4.17;59.04
47706;BME280;33471;52.104;1.318;2022-12-07T12:45:28;101614.84;;;2.69;58.53
47706;BME280;33471;52.104;1.318;2022-12-07T12:47:57;101620.37;;;2.88;59.89
47706;BME280;33471;52.104;1.318;2022-12-07T12:50:28;101616.16;;;2.74;59.19
47706;BME280;33471;52.104;1.318;2022-12-07T12:53:01;101615.00;;;2.45;60.99
47706;BME280;33471;52.104;1.318;2022-12-07T12:56:24;101614.99;;;2.44;59.25
47706;BME280;33471;52.104;1.318;2022-12-07T12:59:30;101617.68;;;2.69;61.75
47706;BME280;33471;52.104;1.318;2022-12-07T13:02:16;101609.48;;;2.43;61.49
47706;BME280;33471;52.104;1.318;2022-12-07T13:04:52;101606.62;;;2.28;61.92
47706;BME280;33471;52.104;1.318;2022-12-07T13:07:58;101598.37;;;2.39;63.18
47706;BME280;33471;52.104;1.318;2022-12-07T13:10:36;101596.21;;;2.97;60.47
47706;BME280;33471;52.104;1.318;2022-12-07T13:13:29;101588.80;;;3.72;58.19
47706;BME280;33471;52.104;1.318;2022-12-07T13:16:39;101582.72;;;2.20;61.14
47706;BME280;33471;52.104;1.318;2022-12-07T13:20:01;101575.52;;;3.95;59.33
47706;BME280;33471;52.104;1.318;2022-12-07T13:22:49;101572.85;;;2.29;59.42